Terminal Aerodrome Forecast
Issued by NWS

Home | Current Version | Previous Version | Text Only | Print | Product List | Glossary On
Versions: 1 2 3 4 5 6 7 8 9 10 11 12 13 14 15 16 17 18 19 20 21 22 23 24 25 26 27 28 29 30 31 32 33 34
000
FTUS41 KBOX 301120
TAFBED
TAF
KBED 301120Z 3012/0112 00000KT P6SM SCT250
     FM301700 VRB03KT P6SM BKN050
     FM302100 13007KT P6SM SCT050
     FM010100 14005KT P6SM BKN040
     FM010500 00000KT P6SM OVC040=

USA.gov is the U.S. government's official web portal to all federal, state and local government web resources and services.